createdAt,value
2018-03-23T00:00:56.342Z,7.58
2018-03-23T00:01:56.242Z,7.55
2018-03-23T00:02:56.263Z,7.59
2018-03-23T00:03:56.283Z,7.56
2018-03-23T00:04:56.306Z,7.62
2018-03-23T00:05:56.314Z,7.56
2018-03-23T00:06:56.331Z,7.56
2018-03-23T00:07:56.370Z,7.50
2018-03-23T00:08:56.364Z,7.50
2018-03-23T00:09:56.379Z,7.60
2018-03-23T00:10:56.399Z,7.55
2018-03-23T00:11:56.421Z,7.59
2018-03-23T00:12:56.433Z,7.55
2018-03-23T00:13:56.466Z,7.58
2018-03-23T00:14:56.487Z,7.56
2018-03-23T00:15:56.497Z,7.59
2018-03-23T00:16:56.509Z,7.62
2018-03-23T00:17:56.518Z,7.77
2018-03-23T00:18:56.537Z,7.71
2018-03-23T00:19:56.554Z,7.77
2018-03-23T00:20:56.570Z,7.59
2018-03-23T00:21:56.608Z,7.79
2018-03-23T00:22:56.606Z,7.79
2018-03-23T00:23:56.624Z,7.77
2018-03-23T00:24:56.652Z,7.77
2018-03-23T00:25:56.674Z,7.59
2018-03-23T00:26:56.683Z,7.66
2018-03-23T00:27:56.730Z,7.62
2018-03-23T00:28:56.712Z,7.59
2018-03-23T00:29:56.761Z,7.63
2018-03-23T00:30:56.746Z,7.63
2018-03-23T00:31:56.768Z,7.74
2018-03-23T00:32:56.781Z,7.77
2018-03-23T00:33:56.797Z,7.77
2018-03-23T00:34:56.825Z,7.63
2018-03-23T00:35:56.849Z,7.63
2018-03-23T00:36:56.846Z,7.63
2018-03-23T00:37:56.864Z,7.67
2018-03-23T00:38:56.880Z,7.77
2018-03-23T00:39:56.899Z,7.77
2018-03-23T00:40:56.984Z,7.75
2018-03-23T00:41:56.935Z,7.79
2018-03-23T00:42:56.965Z,7.74
2018-03-23T00:43:56.969Z,7.67
2018-03-23T00:44:56.990Z,7.62
2018-03-23T00:45:57.006Z,7.59
2018-03-23T00:46:57.018Z,7.60
2018-03-23T00:47:57.038Z,7.67
2018-03-23T00:48:57.068Z,7.75
2018-03-23T00:49:57.073Z,7.66
2018-03-23T00:50:57.089Z,7.75
2018-03-23T00:51:57.108Z,7.79
2018-03-23T00:52:57.128Z,7.77
2018-03-23T00:53:57.191Z,7.74
2018-03-23T00:54:57.159Z,7.74
2018-03-23T00:55:57.176Z,7.74
2018-03-23T00:56:57.210Z,7.74
2018-03-23T00:57:57.208Z,7.56
2018-03-23T00:58:57.227Z,7.60
2018-03-23T00:59:57.283Z,7.53
2018-03-23T01:00:57.263Z,7.59
2018-03-23T01:01:57.282Z,7.53
2018-03-23T01:02:57.298Z,7.58
2018-03-23T01:03:57.326Z,7.50
2018-03-23T01:04:57.333Z,7.45
2018-03-23T01:05:57.349Z,7.41
2018-03-23T01:06:57.366Z,7.52
2018-03-23T01:07:57.434Z,7.52
2018-03-23T01:08:57.424Z,7.53
2018-03-23T01:09:57.491Z,7.41
2018-03-23T01:10:57.439Z,7.40
2018-03-23T01:11:57.456Z,7.44
2018-03-23T01:12:57.483Z,7.47
2018-03-23T01:13:57.490Z,7.41
2018-03-23T01:14:57.510Z,7.42
2018-03-23T01:15:57.540Z,7.42
2018-03-23T01:16:57.548Z,7.42
2018-03-23T01:17:57.560Z,7.38
2018-03-23T01:18:57.610Z,7.47
2018-03-23T01:19:57.594Z,7.47
2018-03-23T01:20:57.667Z,7.52
2018-03-23T01:21:57.632Z,7.47
2018-03-23T01:22:57.646Z,7.44
2018-03-23T01:23:57.664Z,7.42
2018-03-23T01:24:57.726Z,7.52
2018-03-23T01:25:57.697Z,7.55
2018-03-23T01:26:57.773Z,7.49
2018-03-23T01:27:57.736Z,7.49
2018-03-23T01:28:57.752Z,7.56
2018-03-23T01:29:57.767Z,7.52
2018-03-23T01:30:57.788Z,7.53
2018-03-23T01:31:57.808Z,7.45
2018-03-23T01:32:57.822Z,7.50
2018-03-23T01:33:57.839Z,7.44
2018-03-23T01:34:57.908Z,7.53
2018-03-23T01:35:57.867Z,7.58
2018-03-23T01:36:57.887Z,7.58
2018-03-23T01:37:57.909Z,7.53
2018-03-23T01:38:57.920Z,7.55
2018-03-23T01:39:57.939Z,7.53
2018-03-23T01:40:57.971Z,7.58
2018-03-23T01:41:57.976Z,7.47
2018-03-23T01:42:57.997Z,7.52
2018-03-23T01:43:58.011Z,7.55
2018-03-23T01:44:58.028Z,7.50
2018-03-23T01:45:58.047Z,7.52
2018-03-23T01:46:58.057Z,7.56
2018-03-23T01:47:58.124Z,7.52
2018-03-23T01:48:58.103Z,7.56
2018-03-23T01:49:58.118Z,7.55
2018-03-23T01:50:58.128Z,7.58
2018-03-23T01:51:58.169Z,7.59
2018-03-23T01:52:58.168Z,7.56
2018-03-23T01:53:58.183Z,7.56
2018-03-23T01:54:58.198Z,7.55
2018-03-23T01:55:58.214Z,7.63
2018-03-23T01:56:58.232Z,7.63
2018-03-23T01:57:58.250Z,7.62
2018-03-23T01:58:58.298Z,7.71
2018-03-23T01:59:58.283Z,7.74
2018-03-23T02:00:58.306Z,7.72
2018-03-23T02:01:58.322Z,7.77
2018-03-23T02:02:58.365Z,7.62
2018-03-23T02:03:58.355Z,7.71
2018-03-23T02:04:58.371Z,7.59
2018-03-23T02:05:58.388Z,7.60
2018-03-23T02:07:05.248Z,7.59
2018-03-23T02:07:58.424Z,7.59
2018-03-23T02:08:58.439Z,7.56
2018-03-23T02:09:58.461Z,7.53
2018-03-23T02:10:58.476Z,7.56
2018-03-23T02:11:58.491Z,7.55
2018-03-23T02:12:58.524Z,7.59
2018-03-23T02:13:58.533Z,7.52
2018-03-23T02:14:58.546Z,7.53
2018-03-23T02:15:58.561Z,7.56
2018-03-23T02:16:58.580Z,7.58
2018-03-23T02:17:58.602Z,7.56
2018-03-23T02:18:58.612Z,7.55
2018-03-23T02:19:58.632Z,7.56
2018-03-23T02:20:58.658Z,7.50
2018-03-23T02:21:58.662Z,7.53
2018-03-23T02:22:58.685Z,7.52
2018-03-23T02:23:58.707Z,7.52
2018-03-23T02:24:58.716Z,7.50
2018-03-23T02:25:58.750Z,7.53
2018-03-23T02:26:58.763Z,7.50
2018-03-23T02:27:58.770Z,7.50
2018-03-23T02:28:58.802Z,7.52
2018-03-23T02:29:58.802Z,7.56
2018-03-23T02:30:58.818Z,7.50
2018-03-23T02:31:58.834Z,7.52
2018-03-23T02:32:58.852Z,7.52
2018-03-23T02:33:58.896Z,7.53
2018-03-23T02:34:58.888Z,7.56
2018-03-23T02:35:58.904Z,7.50
2018-03-23T02:36:58.928Z,7.50
2018-03-23T02:37:58.940Z,7.58
2018-03-23T02:38:58.955Z,7.60
2018-03-23T02:39:58.977Z,7.60
2018-03-23T02:40:58.991Z,7.63
2018-03-23T02:41:59.076Z,7.55
2018-03-23T02:42:59.049Z,7.53
2018-03-23T02:43:59.045Z,7.52
2018-03-23T02:44:59.067Z,7.52
2018-03-23T02:45:59.081Z,7.53
2018-03-23T02:46:59.091Z,7.58
2018-03-23T02:47:59.115Z,7.49
2018-03-23T02:48:59.152Z,7.53
2018-03-23T02:49:59.148Z,7.59
2018-03-23T02:50:59.161Z,7.59
2018-03-23T02:51:59.177Z,7.60
2018-03-23T02:52:59.194Z,7.59
2018-03-23T02:53:59.209Z,7.62
2018-03-23T02:54:59.353Z,7.63
2018-03-23T02:55:59.249Z,7.53
2018-03-23T02:56:59.315Z,7.55
2018-03-23T02:57:59.284Z,7.50
2018-03-23T02:58:59.316Z,7.49
2018-03-23T02:59:59.318Z,7.56
2018-03-23T03:00:59.338Z,7.52
2018-03-23T03:01:59.390Z,7.50
2018-03-23T03:02:59.374Z,7.55
2018-03-23T03:03:59.385Z,7.42
2018-03-23T03:04:59.402Z,7.44
2018-03-23T05:05:01.694Z,6.41
2018-03-23T05:06:01.679Z,6.47
2018-03-23T05:07:54.580Z,6.51
2018-03-23T05:08:54.581Z,6.47
2018-03-23T05:10:47.533Z,6.47
2018-03-23T05:11:47.498Z,6.44
2018-03-23T05:13:40.413Z,6.38
2018-03-23T05:14:40.421Z,6.38
2018-03-23T05:16:33.360Z,6.51
2018-03-23T05:17:33.344Z,6.43
2018-03-23T05:19:26.287Z,6.53
2018-03-23T05:20:26.276Z,6.44
2018-03-23T05:22:19.723Z,6.44
2018-03-23T05:23:19.708Z,6.50
2018-03-23T05:25:12.649Z,6.63
2018-03-23T05:26:12.650Z,6.54
2018-03-23T05:28:05.591Z,6.61
2018-03-23T05:29:05.568Z,6.61
2018-03-23T05:30:58.512Z,6.66
2018-03-23T05:31:58.516Z,6.62
2018-03-23T05:33:51.427Z,6.48
2018-03-23T05:34:51.427Z,6.50
2018-03-23T05:36:44.383Z,6.46
2018-03-23T05:37:44.372Z,6.61
2018-03-23T05:39:37.298Z,6.44
2018-03-23T05:40:37.313Z,6.48
2018-03-23T05:42:30.248Z,6.51
2018-03-23T05:43:30.246Z,6.47
2018-03-23T05:45:23.682Z,6.59
2018-03-23T05:46:23.736Z,6.53
2018-03-23T05:48:16.601Z,6.54
2018-03-23T05:49:16.617Z,6.56
2018-03-23T05:51:10.072Z,6.59
2018-03-23T05:52:10.039Z,6.62
2018-03-23T05:54:03.075Z,6.58
2018-03-23T05:55:02.991Z,6.56
2018-03-23T05:56:55.915Z,6.59
2018-03-23T05:57:55.914Z,6.54
2018-03-23T05:59:48.863Z,6.44
2018-03-23T06:00:48.850Z,6.53
2018-03-23T06:02:41.872Z,6.56
2018-03-23T06:03:41.830Z,6.66
2018-03-23T06:05:34.883Z,6.61
2018-03-23T06:06:34.841Z,6.62
2018-03-23T06:08:27.836Z,6.56
2018-03-23T06:09:27.756Z,6.53
2018-03-23T06:11:20.712Z,6.65
2018-03-23T06:12:20.695Z,6.61
2018-03-23T06:14:13.644Z,6.62
2018-03-23T06:15:13.642Z,6.61
2018-03-23T06:17:06.592Z,6.62
2018-03-23T06:18:06.589Z,6.66
2018-03-23T06:19:59.539Z,6.56
2018-03-23T06:20:59.542Z,6.68
2018-03-23T06:22:52.521Z,6.66
2018-03-23T06:23:52.504Z,6.65
2018-03-23T06:25:45.478Z,6.79
2018-03-23T06:26:45.452Z,6.73
2018-03-23T06:28:38.398Z,6.68
2018-03-23T06:29:38.416Z,6.80
2018-03-23T06:31:31.376Z,6.69
2018-03-23T06:32:31.364Z,6.79
2018-03-23T06:34:24.845Z,6.79
2018-03-23T06:35:24.833Z,6.86
2018-03-23T06:37:17.867Z,6.80
2018-03-23T06:38:17.858Z,6.87
2018-03-23T06:40:10.777Z,6.73
2018-03-23T06:41:10.788Z,6.73
2018-03-23T06:43:03.753Z,6.84
2018-03-23T06:44:03.721Z,6.86
2018-03-23T06:45:56.653Z,6.86
2018-03-23T06:46:56.707Z,6.80
2018-03-23T06:48:49.614Z,6.84
2018-03-23T06:49:49.604Z,6.80
2018-03-23T06:51:42.544Z,6.87
2018-03-23T06:52:42.538Z,6.86
2018-03-23T06:54:35.467Z,6.99
2018-03-23T06:55:35.482Z,7.02
2018-03-23T06:57:28.421Z,7.07
2018-03-23T06:58:28.409Z,7.07
2018-03-23T07:00:21.339Z,7.13
2018-03-23T07:01:21.349Z,7.09
2018-03-23T07:03:14.293Z,7.23
2018-03-23T07:04:14.283Z,7.27
2018-03-23T07:06:07.216Z,7.31
2018-03-23T07:07:07.217Z,7.29
2018-03-23T07:09:00.179Z,7.37
2018-03-23T07:10:00.169Z,7.55
2018-03-23T07:11:53.197Z,7.63
2018-03-23T07:12:53.190Z,7.63
2018-03-23T07:14:46.145Z,7.72
2018-03-23T07:15:46.144Z,7.82
2018-03-23T07:17:39.111Z,7.78
2018-03-23T07:18:39.155Z,7.77
2018-03-23T07:20:32.066Z,7.92
2018-03-23T07:21:32.067Z,7.97
2018-03-23T07:23:25.010Z,7.89
2018-03-23T07:24:25.003Z,7.90
2018-03-23T07:26:18.044Z,7.97
2018-03-23T07:27:18.064Z,8.08
2018-03-23T07:29:11.033Z,8.00
2018-03-23T07:30:11.011Z,7.99
2018-03-23T07:32:04.020Z,7.96
2018-03-23T07:33:03.962Z,8.12
2018-03-23T07:34:56.905Z,8.10
2018-03-23T07:35:56.929Z,8.25
2018-03-23T07:37:49.915Z,8.39
2018-03-23T07:38:49.848Z,8.47
2018-03-23T07:40:42.815Z,8.65
2018-03-23T07:41:42.825Z,8.90
2018-03-23T07:43:35.838Z,8.93
2018-03-23T07:44:35.780Z,9.06
2018-03-23T07:46:28.760Z,9.23
2018-03-23T07:47:28.757Z,9.21
2018-03-23T07:49:21.693Z,9.31
2018-03-23T07:50:21.686Z,9.34
2018-03-23T07:52:14.681Z,9.45
2018-03-23T07:53:14.639Z,9.68
2018-03-23T07:55:07.588Z,9.53
2018-03-23T07:56:07.586Z,9.57
2018-03-23T07:58:00.693Z,9.50
2018-03-23T07:59:00.646Z,9.57
2018-03-23T08:00:53.582Z,9.56
2018-03-23T08:01:53.597Z,9.71
2018-03-23T08:03:46.557Z,9.40
2018-03-23T08:04:46.552Z,9.43
2018-03-23T08:06:39.518Z,9.57
2018-03-23T08:07:39.500Z,9.50
2018-03-23T08:09:32.536Z,9.56
2018-03-23T08:10:32.455Z,9.53
2018-03-23T08:12:25.416Z,9.63
2018-03-23T08:13:25.407Z,9.76
2018-03-23T08:15:19.091Z,9.73
2018-03-23T08:16:19.106Z,9.70
2018-03-23T08:18:12.142Z,10.00
2018-03-23T08:19:12.376Z,10.01
2018-03-23T08:21:05.097Z,10.01
2018-03-23T08:22:05.095Z,10.01
2018-03-23T08:23:58.182Z,9.93
2018-03-23T08:24:58.173Z,9.96
2018-03-23T08:26:51.184Z,9.93
2018-03-23T08:27:51.201Z,9.93
2018-03-23T08:29:44.162Z,9.88
2018-03-23T08:30:44.152Z,9.99
2018-03-23T08:32:37.112Z,9.97
2018-03-23T08:33:37.119Z,9.94
2018-03-23T08:35:30.044Z,9.79
2018-03-23T08:36:30.065Z,9.78
2018-03-23T08:38:23.284Z,9.94
2018-03-23T08:39:23.191Z,9.86
2018-03-23T08:41:16.740Z,10.32
2018-03-23T08:42:16.614Z,10.30
2018-03-23T08:44:10.323Z,10.37
2018-03-23T08:45:11.277Z,10.32
2018-03-23T08:47:03.201Z,10.33
2018-03-23T08:48:02.968Z,10.40
2018-03-23T08:49:56.263Z,10.32
2018-03-23T08:50:56.142Z,10.40
2018-03-23T08:52:49.432Z,10.44
2018-03-23T08:53:49.385Z,10.36
2018-03-23T08:55:42.288Z,10.36
2018-03-23T08:56:42.307Z,10.34
2018-03-23T08:58:35.376Z,10.46
2018-03-23T08:59:35.333Z,10.52
2018-03-23T09:01:29.577Z,10.32
2018-03-23T09:02:28.797Z,10.28
2018-03-23T09:03:28.271Z,10.40
2018-03-23T09:04:28.375Z,10.51
2018-03-23T09:05:28.332Z,10.51
2018-03-23T09:06:28.389Z,10.56
2018-03-23T09:07:28.354Z,10.39
2018-03-23T09:08:28.367Z,10.44
2018-03-23T09:09:28.381Z,10.33
2018-03-23T09:10:28.472Z,10.21
2018-03-23T09:11:28.468Z,10.07
2018-03-23T09:12:28.536Z,10.00
2018-03-23T09:13:28.534Z,10.07
2018-03-23T09:14:28.701Z,10.21
2018-03-23T09:15:28.504Z,10.30
2018-03-23T09:16:28.518Z,10.26
2018-03-23T09:17:28.566Z,10.51
2018-03-23T09:18:28.673Z,10.32
2018-03-23T09:20:30.013Z,10.28
2018-03-23T09:21:28.655Z,10.24
2018-03-23T09:22:28.645Z,10.32
2018-03-23T09:23:28.667Z,10.24
2018-03-23T09:24:28.702Z,10.14
2018-03-23T09:25:28.817Z,10.28
2018-03-23T09:26:28.740Z,10.30
2018-03-23T09:27:28.806Z,10.14
2018-03-23T09:28:28.801Z,10.21
2018-03-23T09:29:28.845Z,10.07
2018-03-23T09:30:28.798Z,10.10
2018-03-23T09:31:28.840Z,9.99
2018-03-23T09:32:28.890Z,9.79
2018-03-23T09:33:28.935Z,9.73
2018-03-23T09:34:28.875Z,9.70
2018-03-23T09:35:28.907Z,9.67
2018-03-23T09:36:28.932Z,9.52
2018-03-23T09:37:28.935Z,9.43
2018-03-23T09:38:28.959Z,9.42
2018-03-23T09:39:29.053Z,9.30
2018-03-23T09:40:28.995Z,9.28
2018-03-23T09:41:29.117Z,9.30
2018-03-23T09:42:29.176Z,9.40
2018-03-23T09:43:29.124Z,9.34
2018-03-23T09:44:29.070Z,9.31
2018-03-23T09:45:29.091Z,9.20
2018-03-23T09:46:29.110Z,9.12
2018-03-23T09:47:29.261Z,9.06
2018-03-23T09:48:29.153Z,9.06
2018-03-23T09:49:29.168Z,9.05
2018-03-23T09:50:29.190Z,9.04
2018-03-23T09:51:29.230Z,9.09
2018-03-23T09:52:29.225Z,9.16
2018-03-23T09:53:29.255Z,9.13
2018-03-23T09:54:29.330Z,9.04
2018-03-23T09:55:29.294Z,9.21
2018-03-23T09:56:29.313Z,9.16
2018-03-23T09:57:29.321Z,9.21
2018-03-23T09:58:29.350Z,9.12
2018-03-23T09:59:29.369Z,9.21
2018-03-23T10:00:29.418Z,9.40
2018-03-23T10:01:29.478Z,9.38
2018-03-23T10:02:29.515Z,9.43
2018-03-23T10:03:29.451Z,9.40
2018-03-23T10:04:29.476Z,9.27
2018-03-23T10:05:29.551Z,9.24
2018-03-23T10:06:29.499Z,9.27
2018-03-23T10:07:29.519Z,9.30
2018-03-23T10:08:29.532Z,9.24
2018-03-23T10:09:29.564Z,9.38
2018-03-23T10:10:29.574Z,9.32
2018-03-23T10:11:29.598Z,9.25
2018-03-23T10:12:29.612Z,9.24
2018-03-23T10:13:30.895Z,9.16
2018-03-23T10:14:29.646Z,9.18
2018-03-23T10:15:30.039Z,9.05
2018-03-23T10:16:29.736Z,9.12
2018-03-23T10:17:29.758Z,9.16
2018-03-23T10:18:29.787Z,9.15
2018-03-23T10:19:29.812Z,9.02
2018-03-23T10:20:29.821Z,9.04
2018-03-23T10:21:29.788Z,8.97
2018-03-23T10:22:29.817Z,8.93
2018-03-23T10:23:29.879Z,8.94
2018-03-23T10:24:29.843Z,9.01
2018-03-23T10:25:29.865Z,9.01
2018-03-23T10:26:29.882Z,9.05
2018-03-23T10:27:29.884Z,9.04
2018-03-23T10:28:29.905Z,9.04
2018-03-23T10:29:29.928Z,9.05
2018-03-23T10:30:29.949Z,9.09
2018-03-23T10:31:29.982Z,9.05
2018-03-23T10:32:29.978Z,9.05
2018-03-23T10:33:30.003Z,9.06
2018-03-23T10:34:30.019Z,9.10
2018-03-23T10:35:30.044Z,9.27
2018-03-23T10:36:30.056Z,9.20
2018-03-23T10:37:30.078Z,9.18
2018-03-23T10:38:30.113Z,9.18
2018-03-23T10:39:30.110Z,9.13
2018-03-23T10:40:30.127Z,9.16
2018-03-23T10:41:30.147Z,9.20
2018-03-23T10:42:30.164Z,9.20
2018-03-23T10:43:30.191Z,9.15
2018-03-23T10:44:30.205Z,9.04
2018-03-23T10:45:30.220Z,9.02
2018-03-23T10:46:30.241Z,9.04
2018-03-23T10:47:30.263Z,9.12
2018-03-23T10:48:30.277Z,9.15
2018-03-23T10:49:30.295Z,9.27
2018-03-23T10:50:30.325Z,9.21
2018-03-23T10:51:30.357Z,9.13
2018-03-23T10:52:30.359Z,9.21
2018-03-23T10:53:30.380Z,9.15
2018-03-23T10:54:30.397Z,9.28
2018-03-23T10:55:30.411Z,9.21
2018-03-23T10:56:30.434Z,9.05
2018-03-23T10:57:30.487Z,9.02
2018-03-23T10:58:30.471Z,8.97
2018-03-23T10:59:30.486Z,8.91
2018-03-23T11:00:30.501Z,8.93
2018-03-23T11:01:30.528Z,8.97
2018-03-23T11:02:30.544Z,8.88
2018-03-23T11:03:30.562Z,8.94
2018-03-23T11:04:30.572Z,8.97
2018-03-23T11:05:30.591Z,9.06
2018-03-23T11:06:30.615Z,9.12
2018-03-23T11:07:30.663Z,9.04
2018-03-23T11:08:30.646Z,9.04
2018-03-23T11:09:30.679Z,9.23
2018-03-23T11:10:30.695Z,9.23
2018-03-23T11:11:30.713Z,9.09
2018-03-23T11:12:30.729Z,9.23
2018-03-23T11:13:30.744Z,9.18
2018-03-23T11:14:30.763Z,9.13
2018-03-23T11:15:30.777Z,8.93
2018-03-23T11:16:30.798Z,8.91
2018-03-23T11:17:30.818Z,8.96
2018-03-23T11:18:30.834Z,8.93
2018-03-23T11:19:30.852Z,8.91
2018-03-23T11:20:30.903Z,9.01
2018-03-23T11:21:30.890Z,9.01
2018-03-23T11:22:30.912Z,8.91
2018-03-23T11:23:30.931Z,8.97
2018-03-23T11:24:30.997Z,9.04
2018-03-23T11:25:30.963Z,9.12
2018-03-23T11:26:30.987Z,9.10
2018-03-23T11:27:31.001Z,9.18
2018-03-23T11:28:31.025Z,9.16
2018-03-23T11:29:31.043Z,9.15
2018-03-23T11:30:31.066Z,9.24
2018-03-23T11:31:31.079Z,9.13
2018-03-23T11:32:31.088Z,9.16
2018-03-23T11:33:31.107Z,9.20
2018-03-23T11:34:31.131Z,9.20
2018-03-23T11:35:31.147Z,9.23
2018-03-23T11:36:31.206Z,9.27
2018-03-23T11:37:31.188Z,9.32
2018-03-23T11:38:31.203Z,9.42
2018-03-23T11:39:31.220Z,9.38
2018-03-23T11:40:31.238Z,9.46
2018-03-23T11:41:31.264Z,9.70
2018-03-23T11:42:31.277Z,9.64
2018-03-23T11:43:31.293Z,9.75
2018-03-23T11:44:31.313Z,9.81
2018-03-23T11:45:31.331Z,9.73
2018-03-23T11:46:31.350Z,9.73
2018-03-23T11:47:31.378Z,9.67
2018-03-23T11:48:31.405Z,9.57
2018-03-23T11:49:31.408Z,9.53
2018-03-23T11:50:31.425Z,9.66
2018-03-23T11:51:31.442Z,9.71
2018-03-23T11:52:31.465Z,9.58
2018-03-23T11:53:31.481Z,9.52
2018-03-23T11:54:31.500Z,9.43
2018-03-23T11:55:31.522Z,9.53
2018-03-23T11:56:31.537Z,9.46
2018-03-23T11:57:31.556Z,9.48
2018-03-23T11:58:31.574Z,9.48
2018-03-23T11:59:31.597Z,9.43
2018-03-23T12:00:31.612Z,9.49
2018-03-23T12:01:31.628Z,9.50
2018-03-23T12:02:31.649Z,9.63
2018-03-23T12:03:31.666Z,9.61
2018-03-23T12:04:31.685Z,9.70
2018-03-23T12:05:31.702Z,9.88
2018-03-23T12:06:31.734Z,9.91
2018-03-23T12:07:31.781Z,9.94
2018-03-23T12:08:31.764Z,9.79
2018-03-23T12:09:31.783Z,9.75
2018-03-23T12:10:31.803Z,9.71
2018-03-23T12:11:31.823Z,9.60
2018-03-23T12:12:31.834Z,9.52
2018-03-23T12:13:31.857Z,9.38
2018-03-23T12:14:31.874Z,9.24
2018-03-23T12:15:31.894Z,9.24
2018-03-23T12:16:31.910Z,9.28
2018-03-23T12:17:31.929Z,9.23
2018-03-23T12:18:31.947Z,9.24
2018-03-23T12:19:31.967Z,9.27
2018-03-23T12:20:31.985Z,9.15
2018-03-23T12:21:32.064Z,9.05
2018-03-23T12:22:32.031Z,9.09
2018-03-23T12:23:32.042Z,8.99
2018-03-23T12:24:32.062Z,9.20
2018-03-23T12:25:32.078Z,9.13
2018-03-23T12:26:32.121Z,9.31
2018-03-23T12:27:32.144Z,9.35
2018-03-23T12:28:32.133Z,9.46
2018-03-23T12:29:32.150Z,9.45
2018-03-23T12:30:32.169Z,9.48
2018-03-23T12:31:32.195Z,9.46
2018-03-23T12:32:32.283Z,9.60
2018-03-23T12:33:32.229Z,9.49
2018-03-23T12:34:32.304Z,9.39
2018-03-23T12:35:32.363Z,9.39
2018-03-23T12:36:32.285Z,9.34
2018-03-23T12:37:32.303Z,9.28
2018-03-23T12:38:32.350Z,9.27
2018-03-23T12:39:32.338Z,9.27
2018-03-23T12:40:32.354Z,9.24
2018-03-23T12:41:32.372Z,9.25
2018-03-23T12:42:32.396Z,9.25
2018-03-23T12:43:32.411Z,9.21
2018-03-23T12:44:32.436Z,9.18
2018-03-23T12:45:32.504Z,9.27
2018-03-23T12:46:32.468Z,9.38
2018-03-23T12:47:32.486Z,9.30
2018-03-23T12:48:32.504Z,9.24
2018-03-23T12:49:32.521Z,9.23
2018-03-23T12:50:32.541Z,9.10
2018-03-23T12:51:32.585Z,9.09
2018-03-23T12:52:32.577Z,9.18
2018-03-23T12:53:32.596Z,9.23
2018-03-23T12:54:32.615Z,9.15
2018-03-23T12:55:32.631Z,9.13
2018-03-23T12:56:32.657Z,9.06
2018-03-23T12:57:32.669Z,9.13
2018-03-23T12:58:32.689Z,9.13
2018-03-23T12:59:32.705Z,9.25
2018-03-23T13:00:32.722Z,9.25
2018-03-23T13:01:32.743Z,9.16
2018-03-23T13:02:32.760Z,9.12
2018-03-23T13:03:32.792Z,9.20
2018-03-23T13:04:32.797Z,9.12
2018-03-23T13:05:32.822Z,9.05
2018-03-23T13:06:32.834Z,9.05
2018-03-23T13:07:32.856Z,9.06
2018-03-23T13:08:32.871Z,9.04
2018-03-23T13:09:32.889Z,9.02
2018-03-23T13:10:32.907Z,8.96
2018-03-23T13:11:32.929Z,8.88
2018-03-23T13:12:32.953Z,8.93
2018-03-23T13:13:32.962Z,9.04
2018-03-23T13:14:32.980Z,9.04
2018-03-23T13:15:33.002Z,9.13
2018-03-23T13:16:33.024Z,9.10
2018-03-23T13:17:33.038Z,8.99
2018-03-23T13:18:33.056Z,9.20
2018-03-23T13:19:33.073Z,9.05
2018-03-23T13:20:33.089Z,9.06
2018-03-23T13:21:33.113Z,9.04
2018-03-23T13:22:33.150Z,9.02
2018-03-23T13:23:33.148Z,9.04
2018-03-23T13:24:33.167Z,9.01
2018-03-23T13:25:33.192Z,8.88
2018-03-23T13:26:33.210Z,8.96
2018-03-23T13:27:33.220Z,9.04
2018-03-23T13:28:33.249Z,9.02
2018-03-23T13:29:33.256Z,9.09
2018-03-23T13:30:33.280Z,9.05
2018-03-23T13:31:33.296Z,9.01
2018-03-23T13:32:33.313Z,9.01
2018-03-23T13:33:33.337Z,8.90
2018-03-23T13:34:33.348Z,8.86
2018-03-23T13:35:33.386Z,8.88
2018-03-23T13:36:33.416Z,8.97
2018-03-23T13:37:33.422Z,8.97
2018-03-23T13:38:33.426Z,8.93
2018-03-23T13:39:33.442Z,9.05
2018-03-23T13:40:33.460Z,8.99
2018-03-23T13:41:33.474Z,8.94
2018-03-23T13:42:33.499Z,8.90
2018-03-23T13:43:33.512Z,8.86
2018-03-23T13:44:33.531Z,8.87
2018-03-23T13:45:33.548Z,8.93
2018-03-23T13:46:33.571Z,8.86
2018-03-23T13:47:33.590Z,8.88
2018-03-23T13:48:33.603Z,8.86
2018-03-23T13:49:33.664Z,8.88
2018-03-23T13:50:33.641Z,8.91
2018-03-23T13:51:33.664Z,9.02
2018-03-23T13:52:33.676Z,9.02
2018-03-23T13:53:33.694Z,8.91
2018-03-23T13:54:33.716Z,8.94
2018-03-23T13:55:33.736Z,8.94
2018-03-23T13:56:33.751Z,9.02
2018-03-23T13:57:33.767Z,9.06
2018-03-23T13:58:33.785Z,8.96
2018-03-23T13:59:33.804Z,8.96
2018-03-23T14:00:33.823Z,8.97
2018-03-23T14:01:33.840Z,9.05
2018-03-23T14:02:33.876Z,9.12
2018-03-23T14:03:33.881Z,9.13
2018-03-23T14:04:33.917Z,9.09
2018-03-23T14:05:33.913Z,9.12
2018-03-23T14:06:33.935Z,9.23
2018-03-23T14:07:33.957Z,9.28
2018-03-23T14:08:33.968Z,9.34
2018-03-23T14:09:33.987Z,9.35
2018-03-23T14:10:34.007Z,9.39
2018-03-23T14:11:34.028Z,9.50
2018-03-23T14:12:34.047Z,9.56
2018-03-23T14:13:34.075Z,9.61
2018-03-23T14:14:34.081Z,9.64
2018-03-23T14:15:34.097Z,9.71
2018-03-23T14:16:34.114Z,9.73
2018-03-23T14:17:34.136Z,9.73
2018-03-23T14:18:34.151Z,9.75
2018-03-23T14:19:34.169Z,9.89
2018-03-23T14:20:34.192Z,9.88
2018-03-23T14:21:34.207Z,10.03
2018-03-23T14:22:34.229Z,10.06
2018-03-23T14:23:34.249Z,10.15
2018-03-23T14:24:34.274Z,10.22
2018-03-23T14:25:34.284Z,10.21
2018-03-23T14:26:34.307Z,10.10
2018-03-23T14:27:34.322Z,10.17
2018-03-23T14:28:34.342Z,10.03
2018-03-23T14:29:34.357Z,10.01
2018-03-23T14:30:34.378Z,10.15
2018-03-23T14:31:34.393Z,10.10
2018-03-23T14:32:34.430Z,10.07
2018-03-23T14:33:34.433Z,9.99
2018-03-23T14:34:34.453Z,10.04
2018-03-23T14:35:34.469Z,10.03
2018-03-23T14:36:34.488Z,10.00
2018-03-23T14:37:34.506Z,9.83
2018-03-23T14:38:34.529Z,9.83
2018-03-23T14:39:34.544Z,9.86
2018-03-23T14:40:34.582Z,9.83
2018-03-23T14:41:34.587Z,9.79
2018-03-23T14:42:34.602Z,9.71
2018-03-23T14:43:34.622Z,9.78
2018-03-23T14:44:34.640Z,9.75
2018-03-23T14:45:34.659Z,9.67
2018-03-23T14:46:34.682Z,9.75
2018-03-23T14:47:34.698Z,9.85
2018-03-23T14:48:34.717Z,9.94
2018-03-23T14:49:34.736Z,10.06
2018-03-23T14:50:34.758Z,10.04
2018-03-23T14:51:34.776Z,10.18
2018-03-23T14:52:34.789Z,10.21
2018-03-23T14:53:34.816Z,10.07
2018-03-23T14:54:34.829Z,10.15
2018-03-23T14:55:34.850Z,10.19
2018-03-23T14:56:34.867Z,10.22
2018-03-23T14:57:34.900Z,10.22
2018-03-23T14:58:34.913Z,10.18
2018-03-23T14:59:34.942Z,10.18
2018-03-23T15:00:34.948Z,10.19
2018-03-23T15:01:34.960Z,10.28
2018-03-23T15:02:34.980Z,10.17
2018-03-23T15:03:35.000Z,10.12
2018-03-23T15:04:35.020Z,10.12
2018-03-23T15:05:35.037Z,10.12
2018-03-23T15:06:35.064Z,10.30
2018-03-23T15:07:35.077Z,10.19
2018-03-23T15:08:35.096Z,10.17
2018-03-23T15:09:35.123Z,10.10
2018-03-23T15:10:35.140Z,10.07
2018-03-23T15:11:35.152Z,10.04
2018-03-23T15:12:35.178Z,10.03
2018-03-23T15:13:35.192Z,10.00
2018-03-23T15:14:35.213Z,10.06
2018-03-23T15:15:35.233Z,10.04
2018-03-23T15:16:35.246Z,9.93
2018-03-23T15:17:35.266Z,9.81
2018-03-23T15:18:35.285Z,9.86
2018-03-23T15:19:35.305Z,9.89
2018-03-23T15:20:35.356Z,9.85
2018-03-23T15:21:35.343Z,9.96
2018-03-23T15:22:35.371Z,9.93
2018-03-23T15:23:35.383Z,9.91
2018-03-23T15:24:35.400Z,9.94
2018-03-23T15:25:35.417Z,9.88
2018-03-23T15:26:35.443Z,9.76
2018-03-23T15:27:35.459Z,9.79
2018-03-23T15:28:35.481Z,9.76
2018-03-23T15:29:35.496Z,9.86
2018-03-23T15:30:35.515Z,9.81
2018-03-23T15:31:35.547Z,9.73
2018-03-23T15:32:35.555Z,9.71
2018-03-23T15:33:35.574Z,9.78
2018-03-23T15:34:35.632Z,9.73
2018-03-23T15:35:35.609Z,9.88
2018-03-23T15:36:35.628Z,9.81
2018-03-23T15:37:35.646Z,9.85
2018-03-23T15:38:35.672Z,9.86
2018-03-23T15:39:35.726Z,9.75
2018-03-23T15:40:35.705Z,9.78
2018-03-23T15:41:35.726Z,9.76
2018-03-23T15:42:35.744Z,9.73
2018-03-23T15:43:35.757Z,9.79
2018-03-23T15:44:35.777Z,9.88
2018-03-23T15:45:35.799Z,9.85
2018-03-23T15:46:35.817Z,9.96
2018-03-23T15:47:35.836Z,9.85
2018-03-23T15:48:35.857Z,9.88
2018-03-23T15:49:35.881Z,9.91
2018-03-23T15:50:35.898Z,9.85
2018-03-23T15:51:35.918Z,9.93
2018-03-23T15:52:35.928Z,9.88
2018-03-23T15:53:35.947Z,9.91
2018-03-23T15:54:35.966Z,9.81
2018-03-23T15:55:35.987Z,9.79
2018-03-23T15:56:36.001Z,9.76
2018-03-23T15:57:36.021Z,9.81
2018-03-23T15:58:36.049Z,9.75
2018-03-23T15:59:36.061Z,9.75
2018-03-23T16:00:36.079Z,9.71
2018-03-23T16:01:36.114Z,9.56
2018-03-23T16:02:36.118Z,9.46
2018-03-23T16:03:36.138Z,9.46
2018-03-23T16:04:36.159Z,9.49
2018-03-23T16:05:36.180Z,9.49
2018-03-23T16:06:36.195Z,9.42
2018-03-23T16:07:36.211Z,9.45
2018-03-23T16:08:36.229Z,9.46
2018-03-23T16:09:36.246Z,9.42
2018-03-23T16:10:36.266Z,9.42
2018-03-23T16:11:36.296Z,9.38
2018-03-23T16:12:36.303Z,9.45
2018-03-23T16:13:36.322Z,9.45
2018-03-23T16:14:36.339Z,9.50
2018-03-23T16:15:36.357Z,9.52
2018-03-23T16:16:36.378Z,9.49
2018-03-23T16:17:36.398Z,9.46
2018-03-23T16:18:36.433Z,9.45
2018-03-23T16:19:36.433Z,9.40
2018-03-23T16:20:36.450Z,9.49
2018-03-23T16:21:36.470Z,9.35
2018-03-23T16:22:36.489Z,9.42
2018-03-23T16:23:36.518Z,9.43
2018-03-23T16:24:36.522Z,9.32
2018-03-23T16:25:36.543Z,9.32
2018-03-23T16:26:36.563Z,9.40
2018-03-23T16:27:36.579Z,9.38
2018-03-23T16:28:36.600Z,9.40